sensor_id;sensor_type;location;lat;lon;timestamp;P1;durP1;ratioP1;P2;durP2;ratioP2
10529;SDS011;5313;48.834;9.228;2023-05-07T00:00:09;5.93;;;4.47;;
10529;SDS011;5313;48.834;9.228;2023-05-07T00:02:35;5.97;;;4.50;;
10529;SDS011;5313;48.834;9.228;2023-05-07T00:05:02;6.33;;;4.37;;
10529;SDS011;5313;48.834;9.228;2023-05-07T00:07:28;6.63;;;4.47;;
10529;SDS011;5313;48.834;9.228;2023-05-07T00:09:54;7.73;;;4.33;;
10529;SDS011;5313;48.834;9.228;2023-05-07T00:12:20;8.13;;;4.00;;
10529;SDS011;5313;48.834;9.228;2023-05-07T00:14:45;7.77;;;4.57;;
10529;SDS011;5313;48.834;9.228;2023-05-07T00:17:11;6.13;;;4.10;;
10529;SDS011;5313;48.834;9.228;2023-05-07T00:19:36;7.80;;;4.80;;
10529;SDS011;5313;48.834;9.228;2023-05-07T00:22:02;6.77;;;4.63;;
10529;SDS011;5313;48.834;9.228;2023-05-07T00:24:27;7.00;;;4.80;;
10529;SDS011;5313;48.834;9.228;2023-05-07T00:26:53;5.20;;;4.40;;
10529;SDS011;5313;48.834;9.228;2023-05-07T00:29:18;6.47;;;4.43;;
10529;SDS011;5313;48.834;9.228;2023-05-07T00:31:44;5.60;;;4.40;;
10529;SDS011;5313;48.834;9.228;2023-05-07T00:34:09;7.50;;;4.60;;
10529;SDS011;5313;48.834;9.228;2023-05-07T00:36:35;7.30;;;4.90;;
10529;SDS011;5313;48.834;9.228;2023-05-07T00:39:01;6.10;;;4.37;;
10529;SDS011;5313;48.834;9.228;2023-05-07T00:41:28;10.70;;;4.73;;
10529;SDS011;5313;48.834;9.228;2023-05-07T00:43:55;8.03;;;4.33;;
10529;SDS011;5313;48.834;9.228;2023-05-07T00:46:21;6.30;;;4.47;;
10529;SDS011;5313;48.834;9.228;2023-05-07T00:48:47;6.43;;;4.17;;
10529;SDS011;5313;48.834;9.228;2023-05-07T00:51:14;8.80;;;4.73;;
10529;SDS011;5313;48.834;9.228;2023-05-07T00:53:40;6.67;;;4.40;;
10529;SDS011;5313;48.834;9.228;2023-05-07T00:56:06;5.37;;;4.43;;
10529;SDS011;5313;48.834;9.228;2023-05-07T00:58:32;5.83;;;4.63;;
10529;SDS011;5313;48.834;9.228;2023-05-07T01:00:58;5.80;;;4.20;;
10529;SDS011;5313;48.834;9.228;2023-05-07T01:03:24;6.43;;;4.63;;
10529;SDS011;5313;48.834;9.228;2023-05-07T01:05:50;5.73;;;4.03;;
10529;SDS011;5313;48.834;9.228;2023-05-07T01:08:17;7.10;;;4.23;;
10529;SDS011;5313;48.834;9.228;2023-05-07T01:10:43;10.10;;;4.80;;
10529;SDS011;5313;48.834;9.228;2023-05-07T01:13:09;5.40;;;4.67;;
10529;SDS011;5313;48.834;9.228;2023-05-07T01:15:37;6.97;;;4.60;;
10529;SDS011;5313;48.834;9.228;2023-05-07T01:18:03;6.20;;;4.53;;
10529;SDS011;5313;48.834;9.228;2023-05-07T01:20:28;5.60;;;4.20;;
10529;SDS011;5313;48.834;9.228;2023-05-07T01:22:55;6.17;;;4.17;;
10529;SDS011;5313;48.834;9.228;2023-05-07T01:25:22;8.47;;;4.67;;
10529;SDS011;5313;48.834;9.228;2023-05-07T01:27:48;6.00;;;4.50;;
10529;SDS011;5313;48.834;9.228;2023-05-07T01:30:13;6.87;;;4.67;;
10529;SDS011;5313;48.834;9.228;2023-05-07T01:32:43;7.47;;;4.13;;
10529;SDS011;5313;48.834;9.228;2023-05-07T01:35:18;6.43;;;4.80;;
10529;SDS011;5313;48.834;9.228;2023-05-07T01:37:49;7.50;;;4.73;;
10529;SDS011;5313;48.834;9.228;2023-05-07T01:40:15;7.37;;;4.83;;
10529;SDS011;5313;48.834;9.228;2023-05-07T01:42:41;7.20;;;4.60;;
10529;SDS011;5313;48.834;9.228;2023-05-07T01:45:08;5.17;;;4.27;;
10529;SDS011;5313;48.834;9.228;2023-05-07T01:47:34;8.20;;;5.00;;
10529;SDS011;5313;48.834;9.228;2023-05-07T01:50:02;9.13;;;4.90;;
10529;SDS011;5313;48.834;9.228;2023-05-07T01:52:29;6.80;;;4.70;;
10529;SDS011;5313;48.834;9.228;2023-05-07T01:54:54;10.57;;;5.33;;
10529;SDS011;5313;48.834;9.228;2023-05-07T01:57:20;7.10;;;4.93;;
10529;SDS011;5313;48.834;9.228;2023-05-07T01:59:45;6.63;;;4.37;;
10529;SDS011;5313;48.834;9.228;2023-05-07T02:02:11;7.07;;;4.60;;
10529;SDS011;5313;48.834;9.228;2023-05-07T02:04:36;7.00;;;4.87;;
10529;SDS011;5313;48.834;9.228;2023-05-07T02:07:02;6.33;;;4.73;;
10529;SDS011;5313;48.834;9.228;2023-05-07T02:09:27;5.37;;;4.30;;
10529;SDS011;5313;48.834;9.228;2023-05-07T02:11:53;5.50;;;4.60;;
10529;SDS011;5313;48.834;9.228;2023-05-07T02:14:18;10.97;;;4.97;;
10529;SDS011;5313;48.834;9.228;2023-05-07T02:16:45;6.97;;;4.37;;
10529;SDS011;5313;48.834;9.228;2023-05-07T02:19:11;6.90;;;4.50;;
10529;SDS011;5313;48.834;9.228;2023-05-07T02:21:36;7.07;;;4.70;;
10529;SDS011;5313;48.834;9.228;2023-05-07T02:24:02;7.00;;;4.80;;
10529;SDS011;5313;48.834;9.228;2023-05-07T02:26:27;7.30;;;4.47;;
10529;SDS011;5313;48.834;9.228;2023-05-07T02:28:53;6.17;;;4.90;;
10529;SDS011;5313;48.834;9.228;2023-05-07T02:31:18;5.40;;;4.87;;
10529;SDS011;5313;48.834;9.228;2023-05-07T02:33:44;6.37;;;4.53;;
10529;SDS011;5313;48.834;9.228;2023-05-07T02:36:10;5.67;;;4.17;;
10529;SDS011;5313;48.834;9.228;2023-05-07T02:38:37;6.17;;;4.67;;
10529;SDS011;5313;48.834;9.228;2023-05-07T02:41:03;8.23;;;4.77;;
10529;SDS011;5313;48.834;9.228;2023-05-07T02:43:28;6.60;;;4.40;;
10529;SDS011;5313;48.834;9.228;2023-05-07T02:46:01;5.43;;;4.30;;
10529;SDS011;5313;48.834;9.228;2023-05-07T02:48:27;6.90;;;4.70;;
10529;SDS011;5313;48.834;9.228;2023-05-07T02:50:53;6.77;;;4.87;;
10529;SDS011;5313;48.834;9.228;2023-05-07T02:53:19;5.93;;;5.00;;
10529;SDS011;5313;48.834;9.228;2023-05-07T02:55:44;6.60;;;4.77;;
10529;SDS011;5313;48.834;9.228;2023-05-07T02:58:10;6.07;;;5.33;;
10529;SDS011;5313;48.834;9.228;2023-05-07T03:00:35;7.63;;;4.83;;
10529;SDS011;5313;48.834;9.228;2023-05-07T03:03:01;6.53;;;4.67;;
10529;SDS011;5313;48.834;9.228;2023-05-07T03:05:26;5.80;;;5.17;;
10529;SDS011;5313;48.834;9.228;2023-05-07T03:07:52;6.10;;;5.00;;
10529;SDS011;5313;48.834;9.228;2023-05-07T03:10:17;5.63;;;4.50;;
10529;SDS011;5313;48.834;9.228;2023-05-07T03:12:43;6.67;;;4.77;;
10529;SDS011;5313;48.834;9.228;2023-05-07T03:15:09;4.87;;;4.37;;
10529;SDS011;5313;48.834;9.228;2023-05-07T03:17:36;8.03;;;4.33;;
10529;SDS011;5313;48.834;9.228;2023-05-07T03:20:02;5.10;;;4.60;;
10529;SDS011;5313;48.834;9.228;2023-05-07T03:22:27;6.93;;;5.33;;
10529;SDS011;5313;48.834;9.228;2023-05-07T03:24:53;6.23;;;4.60;;
10529;SDS011;5313;48.834;9.228;2023-05-07T03:27:18;6.90;;;4.53;;
10529;SDS011;5313;48.834;9.228;2023-05-07T03:29:44;7.07;;;4.80;;
10529;SDS011;5313;48.834;9.228;2023-05-07T03:32:09;6.63;;;4.67;;
10529;SDS011;5313;48.834;9.228;2023-05-07T03:34:35;5.50;;;4.90;;
10529;SDS011;5313;48.834;9.228;2023-05-07T03:37:01;7.63;;;4.90;;
10529;SDS011;5313;48.834;9.228;2023-05-07T03:39:26;8.10;;;5.03;;
10529;SDS011;5313;48.834;9.228;2023-05-07T03:41:52;8.20;;;5.17;;
10529;SDS011;5313;48.834;9.228;2023-05-07T03:44:18;6.67;;;5.17;;
10529;SDS011;5313;48.834;9.228;2023-05-07T03:46:43;6.20;;;5.47;;
10529;SDS011;5313;48.834;9.228;2023-05-07T03:49:09;7.37;;;5.27;;
10529;SDS011;5313;48.834;9.228;2023-05-07T03:51:34;7.87;;;5.03;;
10529;SDS011;5313;48.834;9.228;2023-05-07T03:54:01;8.67;;;4.87;;
10529;SDS011;5313;48.834;9.228;2023-05-07T03:56:26;5.67;;;4.80;;
10529;SDS011;5313;48.834;9.228;2023-05-07T03:58:52;5.63;;;4.73;;
10529;SDS011;5313;48.834;9.228;2023-05-07T04:01:18;5.80;;;4.90;;
10529;SDS011;5313;48.834;9.228;2023-05-07T04:03:44;5.77;;;4.27;;
10529;SDS011;5313;48.834;9.228;2023-05-07T04:06:09;5.80;;;4.57;;
10529;SDS011;5313;48.834;9.228;2023-05-07T04:08:35;7.20;;;4.90;;
10529;SDS011;5313;48.834;9.228;2023-05-07T04:11:01;7.93;;;4.73;;
10529;SDS011;5313;48.834;9.228;2023-05-07T04:13:26;7.43;;;4.67;;
10529;SDS011;5313;48.834;9.228;2023-05-07T04:15:52;7.97;;;5.20;;
10529;SDS011;5313;48.834;9.228;2023-05-07T04:18:19;10.70;;;4.93;;
10529;SDS011;5313;48.834;9.228;2023-05-07T04:20:46;6.77;;;4.83;;
10529;SDS011;5313;48.834;9.228;2023-05-07T04:23:12;10.07;;;4.90;;
10529;SDS011;5313;48.834;9.228;2023-05-07T04:25:37;6.07;;;4.50;;
10529;SDS011;5313;48.834;9.228;2023-05-07T04:28:03;7.20;;;4.67;;
10529;SDS011;5313;48.834;9.228;2023-05-07T04:30:29;7.03;;;4.70;;
10529;SDS011;5313;48.834;9.228;2023-05-07T04:32:54;8.43;;;4.80;;
10529;SDS011;5313;48.834;9.228;2023-05-07T04:35:21;6.47;;;4.80;;
10529;SDS011;5313;48.834;9.228;2023-05-07T04:37:46;5.83;;;4.37;;
10529;SDS011;5313;48.834;9.228;2023-05-07T04:40:12;6.43;;;4.50;;
10529;SDS011;5313;48.834;9.228;2023-05-07T04:42:38;8.67;;;4.77;;
10529;SDS011;5313;48.834;9.228;2023-05-07T04:45:03;7.10;;;4.50;;
10529;SDS011;5313;48.834;9.228;2023-05-07T04:47:29;7.43;;;4.30;;
10529;SDS011;5313;48.834;9.228;2023-05-07T04:49:55;4.73;;;4.30;;
10529;SDS011;5313;48.834;9.228;2023-05-07T04:52:20;5.73;;;3.83;;
10529;SDS011;5313;48.834;9.228;2023-05-07T04:54:46;5.97;;;4.30;;
10529;SDS011;5313;48.834;9.228;2023-05-07T04:57:11;4.43;;;4.00;;
10529;SDS011;5313;48.834;9.228;2023-05-07T04:59:37;6.50;;;4.10;;
10529;SDS011;5313;48.834;9.228;2023-05-07T05:02:02;4.70;;;3.93;;
10529;SDS011;5313;48.834;9.228;2023-05-07T05:04:29;5.80;;;4.30;;
10529;SDS011;5313;48.834;9.228;2023-05-07T05:06:55;4.43;;;3.93;;
10529;SDS011;5313;48.834;9.228;2023-05-07T05:09:20;4.93;;;4.03;;
10529;SDS011;5313;48.834;9.228;2023-05-07T05:11:46;8.40;;;4.13;;
10529;SDS011;5313;48.834;9.228;2023-05-07T05:14:12;4.70;;;3.97;;
10529;SDS011;5313;48.834;9.228;2023-05-07T05:16:37;7.87;;;4.53;;
10529;SDS011;5313;48.834;9.228;2023-05-07T05:19:03;5.17;;;4.20;;
10529;SDS011;5313;48.834;9.228;2023-05-07T05:21:28;7.03;;;3.90;;
10529;SDS011;5313;48.834;9.228;2023-05-07T05:23:54;5.53;;;4.13;;
10529;SDS011;5313;48.834;9.228;2023-05-07T05:26:19;6.10;;;4.03;;
10529;SDS011;5313;48.834;9.228;2023-05-07T05:28:46;6.13;;;4.23;;
10529;SDS011;5313;48.834;9.228;2023-05-07T05:31:11;5.50;;;4.20;;
10529;SDS011;5313;48.834;9.228;2023-05-07T05:33:37;5.33;;;4.40;;
10529;SDS011;5313;48.834;9.228;2023-05-07T05:36:03;5.13;;;3.90;;
10529;SDS011;5313;48.834;9.228;2023-05-07T05:38:28;5.63;;;3.70;;
10529;SDS011;5313;48.834;9.228;2023-05-07T05:40:54;6.50;;;3.90;;
10529;SDS011;5313;48.834;9.228;2023-05-07T05:43:19;4.27;;;3.77;;
10529;SDS011;5313;48.834;9.228;2023-05-07T05:45:45;7.50;;;4.23;;
10529;SDS011;5313;48.834;9.228;2023-05-07T05:48:11;4.70;;;4.20;;
10529;SDS011;5313;48.834;9.228;2023-05-07T05:50:36;7.10;;;4.03;;
10529;SDS011;5313;48.834;9.228;2023-05-07T05:53:02;6.57;;;3.97;;
10529;SDS011;5313;48.834;9.228;2023-05-07T05:55:27;4.47;;;3.53;;
10529;SDS011;5313;48.834;9.228;2023-05-07T05:57:53;4.63;;;4.13;;
10529;SDS011;5313;48.834;9.228;2023-05-07T06:00:19;4.20;;;3.80;;
10529;SDS011;5313;48.834;9.228;2023-05-07T06:02:47;6.43;;;3.70;;
10529;SDS011;5313;48.834;9.228;2023-05-07T06:05:13;6.03;;;4.53;;
10529;SDS011;5313;48.834;9.228;2023-05-07T06:07:38;9.07;;;4.80;;
10529;SDS011;5313;48.834;9.228;2023-05-07T06:10:04;5.63;;;4.37;;
10529;SDS011;5313;48.834;9.228;2023-05-07T06:12:30;5.90;;;4.67;;
10529;SDS011;5313;48.834;9.228;2023-05-07T06:14:56;6.73;;;4.70;;
10529;SDS011;5313;48.834;9.228;2023-05-07T06:17:22;5.03;;;4.27;;
10529;SDS011;5313;48.834;9.228;2023-05-07T06:19:47;5.60;;;4.33;;
10529;SDS011;5313;48.834;9.228;2023-05-07T06:22:13;6.30;;;3.97;;
10529;SDS011;5313;48.834;9.228;2023-05-07T06:24:38;5.40;;;4.07;;
10529;SDS011;5313;48.834;9.228;2023-05-07T06:27:04;6.23;;;4.87;;
10529;SDS011;5313;48.834;9.228;2023-05-07T06:29:29;5.20;;;3.90;;
10529;SDS011;5313;48.834;9.228;2023-05-07T06:32:02;8.17;;;4.23;;
10529;SDS011;5313;48.834;9.228;2023-05-07T06:34:40;4.70;;;3.80;;
10529;SDS011;5313;48.834;9.228;2023-05-07T06:37:06;5.70;;;4.30;;
10529;SDS011;5313;48.834;9.228;2023-05-07T06:39:32;7.43;;;4.40;;
10529;SDS011;5313;48.834;9.228;2023-05-07T06:41:59;5.00;;;4.10;;
10529;SDS011;5313;48.834;9.228;2023-05-07T06:44:25;4.67;;;3.90;;
10529;SDS011;5313;48.834;9.228;2023-05-07T06:46:51;5.57;;;4.33;;
10529;SDS011;5313;48.834;9.228;2023-05-07T06:49:16;4.23;;;3.67;;
10529;SDS011;5313;48.834;9.228;2023-05-07T06:51:42;4.57;;;4.00;;
10529;SDS011;5313;48.834;9.228;2023-05-07T06:54:08;3.77;;;3.37;;
10529;SDS011;5313;48.834;9.228;2023-05-07T06:56:33;6.03;;;3.77;;
10529;SDS011;5313;48.834;9.228;2023-05-07T06:58:59;4.33;;;3.83;;
10529;SDS011;5313;48.834;9.228;2023-05-07T07:01:25;7.53;;;3.50;;
10529;SDS011;5313;48.834;9.228;2023-05-07T07:03:51;9.37;;;4.70;;
10529;SDS011;5313;48.834;9.228;2023-05-07T07:06:16;5.37;;;3.93;;
10529;SDS011;5313;48.834;9.228;2023-05-07T07:08:42;5.50;;;3.60;;
10529;SDS011;5313;48.834;9.228;2023-05-07T07:11:08;6.37;;;3.70;;
10529;SDS011;5313;48.834;9.228;2023-05-07T07:13:35;4.07;;;3.40;;
10529;SDS011;5313;48.834;9.228;2023-05-07T07:16:00;3.37;;;2.80;;
10529;SDS011;5313;48.834;9.228;2023-05-07T07:18:26;3.70;;;3.30;;
10529;SDS011;5313;48.834;9.228;2023-05-07T07:20:51;5.67;;;3.13;;
10529;SDS011;5313;48.834;9.228;2023-05-07T07:23:17;4.03;;;2.87;;
10529;SDS011;5313;48.834;9.228;2023-05-07T07:25:42;7.60;;;3.20;;
10529;SDS011;5313;48.834;9.228;2023-05-07T07:28:08;4.40;;;3.00;;
10529;SDS011;5313;48.834;9.228;2023-05-07T07:30:33;4.50;;;3.00;;
10529;SDS011;5313;48.834;9.228;2023-05-07T07:32:59;5.37;;;2.97;;
10529;SDS011;5313;48.834;9.228;2023-05-07T07:35:28;4.93;;;2.83;;
10529;SDS011;5313;48.834;9.228;2023-05-07T07:37:54;3.60;;;2.80;;
10529;SDS011;5313;48.834;9.228;2023-05-07T07:40:19;3.07;;;2.70;;
10529;SDS011;5313;48.834;9.228;2023-05-07T07:42:45;4.87;;;3.17;;
10529;SDS011;5313;48.834;9.228;2023-05-07T07:45:10;3.83;;;3.13;;
10529;SDS011;5313;48.834;9.228;2023-05-07T07:47:37;5.57;;;4.47;;
10529;SDS011;5313;48.834;9.228;2023-05-07T07:50:02;4.40;;;3.87;;
10529;SDS011;5313;48.834;9.228;2023-05-07T07:52:28;3.80;;;3.40;;
10529;SDS011;5313;48.834;9.228;2023-05-07T07:54:54;3.97;;;3.57;;
10529;SDS011;5313;48.834;9.228;2023-05-07T07:57:20;5.60;;;3.43;;
10529;SDS011;5313;48.834;9.228;2023-05-07T07:59:45;4.03;;;3.20;;
10529;SDS011;5313;48.834;9.228;2023-05-07T08:02:10;5.97;;;4.07;;
10529;SDS011;5313;48.834;9.228;2023-05-07T08:04:36;6.37;;;4.13;;
10529;SDS011;5313;48.834;9.228;2023-05-07T08:07:02;5.63;;;4.27;;
10529;SDS011;5313;48.834;9.228;2023-05-07T08:09:28;5.13;;;3.77;;
10529;SDS011;5313;48.834;9.228;2023-05-07T08:11:53;3.50;;;3.10;;
10529;SDS011;5313;48.834;9.228;2023-05-07T08:14:19;4.83;;;3.30;;
10529;SDS011;5313;48.834;9.228;2023-05-07T08:16:45;4.13;;;3.47;;
10529;SDS011;5313;48.834;9.228;2023-05-07T08:19:10;6.10;;;3.80;;
10529;SDS011;5313;48.834;9.228;2023-05-07T08:21:40;3.60;;;3.30;;
10529;SDS011;5313;48.834;9.228;2023-05-07T08:24:06;3.10;;;2.80;;
10529;SDS011;5313;48.834;9.228;2023-05-07T08:26:31;3.07;;;2.70;;
10529;SDS011;5313;48.834;9.228;2023-05-07T08:28:57;4.97;;;3.30;;
10529;SDS011;5313;48.834;9.228;2023-05-07T08:31:22;4.13;;;3.20;;
10529;SDS011;5313;48.834;9.228;2023-05-07T08:33:48;4.57;;;3.13;;
10529;SDS011;5313;48.834;9.228;2023-05-07T08:36:15;9.53;;;6.03;;
10529;SDS011;5313;48.834;9.228;2023-05-07T08:38:40;5.93;;;3.10;;
10529;SDS011;5313;48.834;9.228;2023-05-07T08:41:09;6.20;;;5.47;;
10529;SDS011;5313;48.834;9.228;2023-05-07T08:43:35;4.73;;;4.03;;
10529;SDS011;5313;48.834;9.228;2023-05-07T08:46:02;5.10;;;2.90;;
10529;SDS011;5313;48.834;9.228;2023-05-07T08:48:29;3.70;;;3.00;;
10529;SDS011;5313;48.834;9.228;2023-05-07T08:50:57;3.80;;;2.70;;
10529;SDS011;5313;48.834;9.228;2023-05-07T08:53:24;4.60;;;2.60;;
10529;SDS011;5313;48.834;9.228;2023-05-07T08:55:49;4.00;;;2.90;;
10529;SDS011;5313;48.834;9.228;2023-05-07T08:58:16;4.20;;;3.07;;
10529;SDS011;5313;48.834;9.228;2023-05-07T09:00:41;4.73;;;3.40;;
10529;SDS011;5313;48.834;9.228;2023-05-07T09:03:07;5.57;;;3.20;;
10529;SDS011;5313;48.834;9.228;2023-05-07T09:05:32;8.50;;;5.97;;
10529;SDS011;5313;48.834;9.228;2023-05-07T09:08:05;3.27;;;2.90;;
10529;SDS011;5313;48.834;9.228;2023-05-07T09:10:32;4.30;;;2.97;;
10529;SDS011;5313;48.834;9.228;2023-05-07T09:12:58;4.70;;;3.57;;
10529;SDS011;5313;48.834;9.228;2023-05-07T09:15:24;7.90;;;5.00;;
10529;SDS011;5313;48.834;9.228;2023-05-07T09:17:51;3.67;;;2.70;;
10529;SDS011;5313;48.834;9.228;2023-05-07T09:20:16;5.90;;;5.30;;
10529;SDS011;5313;48.834;9.228;2023-05-07T09:22:42;3.60;;;2.90;;
10529;SDS011;5313;48.834;9.228;2023-05-07T09:25:09;3.13;;;2.63;;
10529;SDS011;5313;48.834;9.228;2023-05-07T09:27:34;6.57;;;4.73;;
10529;SDS011;5313;48.834;9.228;2023-05-07T09:30:04;3.97;;;2.80;;
10529;SDS011;5313;48.834;9.228;2023-05-07T09:32:33;3.30;;;3.00;;
10529;SDS011;5313;48.834;9.228;2023-05-07T09:35:00;4.27;;;2.60;;
10529;SDS011;5313;48.834;9.228;2023-05-07T09:37:25;3.63;;;2.70;;
10529;SDS011;5313;48.834;9.228;2023-05-07T09:39:51;5.90;;;3.20;;
10529;SDS011;5313;48.834;9.228;2023-05-07T09:42:22;4.97;;;2.37;;
10529;SDS011;5313;48.834;9.228;2023-05-07T09:44:49;3.60;;;2.57;;
10529;SDS011;5313;48.834;9.228;2023-05-07T09:47:18;3.37;;;2.67;;
10529;SDS011;5313;48.834;9.228;2023-05-07T09:49:46;4.73;;;2.70;;
10529;SDS011;5313;48.834;9.228;2023-05-07T09:52:13;2.57;;;2.33;;
10529;SDS011;5313;48.834;9.228;2023-05-07T09:54:39;14.40;;;3.50;;
10529;SDS011;5313;48.834;9.228;2023-05-07T09:57:09;3.80;;;2.23;;
10529;SDS011;5313;48.834;9.228;2023-05-07T09:59:37;2.33;;;2.13;;
10529;SDS011;5313;48.834;9.228;2023-05-07T10:02:03;3.23;;;2.50;;
10529;SDS011;5313;48.834;9.228;2023-05-07T10:04:29;2.80;;;2.30;;
10529;SDS011;5313;48.834;9.228;2023-05-07T10:06:56;2.90;;;2.00;;
10529;SDS011;5313;48.834;9.228;2023-05-07T10:09:22;5.30;;;2.30;;
10529;SDS011;5313;48.834;9.228;2023-05-07T10:11:48;4.40;;;2.30;;
10529;SDS011;5313;48.834;9.228;2023-05-07T10:14:15;2.27;;;2.07;;
10529;SDS011;5313;48.834;9.228;2023-05-07T10:16:40;2.77;;;2.33;;
10529;SDS011;5313;48.834;9.228;2023-05-07T10:19:06;3.53;;;2.40;;
10529;SDS011;5313;48.834;9.228;2023-05-07T10:21:36;3.80;;;2.07;;
10529;SDS011;5313;48.834;9.228;2023-05-07T10:24:04;2.80;;;2.20;;
10529;SDS011;5313;48.834;9.228;2023-05-07T10:26:51;2.60;;;2.00;;
10529;SDS011;5313;48.834;9.228;2023-05-07T10:29:18;3.23;;;2.13;;
10529;SDS011;5313;48.834;9.228;2023-05-07T10:32:07;3.30;;;2.03;;
10529;SDS011;5313;48.834;9.228;2023-05-07T10:35:02;2.63;;;2.10;;
10529;SDS011;5313;48.834;9.228;2023-05-07T10:37:31;4.13;;;2.10;;
10529;SDS011;5313;48.834;9.228;2023-05-07T10:39:57;2.97;;;1.93;;
10529;SDS011;5313;48.834;9.228;2023-05-07T10:42:22;2.87;;;1.80;;
10529;SDS011;5313;48.834;9.228;2023-05-07T10:44:48;2.97;;;2.67;;
10529;SDS011;5313;48.834;9.228;2023-05-07T10:47:14;2.77;;;2.03;;
10529;SDS011;5313;48.834;9.228;2023-05-07T10:52:16;3.87;;;2.00;;
10529;SDS011;5313;48.834;9.228;2023-05-07T10:54:44;3.20;;;2.10;;
10529;SDS011;5313;48.834;9.228;2023-05-07T11:00:00;2.87;;;2.00;;
10529;SDS011;5313;48.834;9.228;2023-05-07T11:05:24;3.53;;;2.20;;
10529;SDS011;5313;48.834;9.228;2023-05-07T11:07:54;2.80;;;2.10;;
10529;SDS011;5313;48.834;9.228;2023-05-07T11:10:20;2.67;;;2.10;;
10529;SDS011;5313;48.834;9.228;2023-05-07T11:12:47;2.73;;;2.00;;
10529;SDS011;5313;48.834;9.228;2023-05-07T11:15:13;3.50;;;2.10;;
10529;SDS011;5313;48.834;9.228;2023-05-07T11:17:52;2.00;;;1.80;;
10529;SDS011;5313;48.834;9.228;2023-05-07T11:20:18;4.10;;;1.80;;
10529;SDS011;5313;48.834;9.228;2023-05-07T11:22:45;2.97;;;2.23;;
10529;SDS011;5313;48.834;9.228;2023-05-07T11:25:11;1.90;;;1.77;;
10529;SDS011;5313;48.834;9.228;2023-05-07T11:27:44;2.37;;;1.70;;
10529;SDS011;5313;48.834;9.228;2023-05-07T11:30:09;2.73;;;1.90;;
10529;SDS011;5313;48.834;9.228;2023-05-07T11:32:36;3.20;;;2.20;;
10529;SDS011;5313;48.834;9.228;2023-05-07T11:35:01;3.77;;;1.83;;
10529;SDS011;5313;48.834;9.228;2023-05-07T11:37:27;1.97;;;1.77;;
10529;SDS011;5313;48.834;9.228;2023-05-07T11:40:07;5.33;;;1.90;;
10529;SDS011;5313;48.834;9.228;2023-05-07T11:42:36;1.93;;;1.67;;
10529;SDS011;5313;48.834;9.228;2023-05-07T11:45:03;5.07;;;2.40;;
10529;SDS011;5313;48.834;9.228;2023-05-07T11:47:30;3.00;;;1.87;;
10529;SDS011;5313;48.834;9.228;2023-05-07T11:49:56;4.90;;;1.73;;
10529;SDS011;5313;48.834;9.228;2023-05-07T11:52:23;2.20;;;1.80;;
10529;SDS011;5313;48.834;9.228;2023-05-07T11:54:50;3.30;;;2.13;;
10529;SDS011;5313;48.834;9.228;2023-05-07T11:57:20;3.97;;;1.80;;
10529;SDS011;5313;48.834;9.228;2023-05-07T11:59:46;3.93;;;1.70;;
10529;SDS011;5313;48.834;9.228;2023-05-07T12:02:16;3.23;;;1.73;;
10529;SDS011;5313;48.834;9.228;2023-05-07T12:04:42;1.90;;;1.53;;
10529;SDS011;5313;48.834;9.228;2023-05-07T12:07:11;3.37;;;2.07;;
10529;SDS011;5313;48.834;9.228;2023-05-07T12:09:38;2.10;;;1.70;;
10529;SDS011;5313;48.834;9.228;2023-05-07T12:12:04;4.53;;;2.00;;
10529;SDS011;5313;48.834;9.228;2023-05-07T12:14:30;2.10;;;1.90;;
10529;SDS011;5313;48.834;9.228;2023-05-07T12:16:56;2.70;;;1.67;;
10529;SDS011;5313;48.834;9.228;2023-05-07T12:19:22;2.33;;;1.70;;
10529;SDS011;5313;48.834;9.228;2023-05-07T12:21:48;2.43;;;1.77;;
10529;SDS011;5313;48.834;9.228;2023-05-07T12:24:14;2.10;;;1.57;;
10529;SDS011;5313;48.834;9.228;2023-05-07T12:26:40;2.13;;;1.40;;
10529;SDS011;5313;48.834;9.228;2023-05-07T12:29:06;5.40;;;2.00;;
10529;SDS011;5313;48.834;9.228;2023-05-07T12:31:32;2.13;;;1.93;;
10529;SDS011;5313;48.834;9.228;2023-05-07T12:33:57;2.90;;;2.00;;
10529;SDS011;5313;48.834;9.228;2023-05-07T12:36:23;3.27;;;2.10;;
10529;SDS011;5313;48.834;9.228;2023-05-07T12:38:49;3.47;;;2.00;;
10529;SDS011;5313;48.834;9.228;2023-05-07T12:41:15;1.90;;;1.63;;
10529;SDS011;5313;48.834;9.228;2023-05-07T12:43:43;2.77;;;2.07;;
10529;SDS011;5313;48.834;9.228;2023-05-07T12:46:09;3.57;;;2.00;;
10529;SDS011;5313;48.834;9.228;2023-05-07T12:48:38;2.13;;;1.93;;
10529;SDS011;5313;48.834;9.228;2023-05-07T12:51:09;2.70;;;1.90;;
10529;SDS011;5313;48.834;9.228;2023-05-07T12:53:39;4.60;;;2.30;;
10529;SDS011;5313;48.834;9.228;2023-05-07T12:56:08;4.67;;;2.50;;
10529;SDS011;5313;48.834;9.228;2023-05-07T12:58:34;2.97;;;2.13;;
10529;SDS011;5313;48.834;9.228;2023-05-07T13:01:01;5.73;;;2.87;;
10529;SDS011;5313;48.834;9.228;2023-05-07T13:03:31;3.10;;;2.57;;
10529;SDS011;5313;48.834;9.228;2023-05-07T13:05:58;5.13;;;3.40;;
10529;SDS011;5313;48.834;9.228;2023-05-07T13:08:26;4.70;;;2.93;;
10529;SDS011;5313;48.834;9.228;2023-05-07T13:10:56;4.57;;;2.37;;
10529;SDS011;5313;48.834;9.228;2023-05-07T13:13:23;3.50;;;2.27;;
10529;SDS011;5313;48.834;9.228;2023-05-07T13:15:50;12.57;;;2.13;;
10529;SDS011;5313;48.834;9.228;2023-05-07T13:18:15;2.37;;;1.90;;
10529;SDS011;5313;48.834;9.228;2023-05-07T13:20:41;3.83;;;2.23;;
10529;SDS011;5313;48.834;9.228;2023-05-07T13:23:06;2.30;;;1.90;;
10529;SDS011;5313;48.834;9.228;2023-05-07T13:25:32;3.03;;;1.60;;
10529;SDS011;5313;48.834;9.228;2023-05-07T13:27:57;3.23;;;1.80;;
10529;SDS011;5313;48.834;9.228;2023-05-07T13:30:23;2.60;;;1.87;;
10529;SDS011;5313;48.834;9.228;2023-05-07T13:32:48;2.20;;;1.70;;
10529;SDS011;5313;48.834;9.228;2023-05-07T13:35:15;3.60;;;1.80;;
10529;SDS011;5313;48.834;9.228;2023-05-07T13:37:41;4.17;;;1.60;;
10529;SDS011;5313;48.834;9.228;2023-05-07T13:40:07;4.67;;;1.87;;
10529;SDS011;5313;48.834;9.228;2023-05-07T13:42:33;3.23;;;1.50;;
10529;SDS011;5313;48.834;9.228;2023-05-07T13:44:58;2.60;;;1.47;;
10529;SDS011;5313;48.834;9.228;2023-05-07T13:47:23;2.17;;;1.33;;
10529;SDS011;5313;48.834;9.228;2023-05-07T13:49:49;1.13;;;0.93;;
10529;SDS011;5313;48.834;9.228;2023-05-07T13:52:15;1.57;;;1.10;;
10529;SDS011;5313;48.834;9.228;2023-05-07T13:54:41;2.03;;;1.00;;
10529;SDS011;5313;48.834;9.228;2023-05-07T13:57:07;2.70;;;1.00;;
10529;SDS011;5313;48.834;9.228;2023-05-07T13:59:33;1.60;;;0.90;;
10529;SDS011;5313;48.834;9.228;2023-05-07T14:01:59;2.87;;;1.10;;
10529;SDS011;5313;48.834;9.228;2023-05-07T14:04:24;2.87;;;1.10;;
10529;SDS011;5313;48.834;9.228;2023-05-07T14:06:50;2.20;;;1.10;;
10529;SDS011;5313;48.834;9.228;2023-05-07T14:09:16;2.37;;;1.30;;
10529;SDS011;5313;48.834;9.228;2023-05-07T14:11:41;2.23;;;1.40;;
10529;SDS011;5313;48.834;9.228;2023-05-07T14:14:07;2.77;;;1.07;;
10529;SDS011;5313;48.834;9.228;2023-05-07T14:16:35;5.53;;;1.50;;
10529;SDS011;5313;48.834;9.228;2023-05-07T14:19:01;2.67;;;1.50;;
10529;SDS011;5313;48.834;9.228;2023-05-07T14:21:26;2.53;;;1.67;;
10529;SDS011;5313;48.834;9.228;2023-05-07T14:23:52;3.10;;;1.70;;
10529;SDS011;5313;48.834;9.228;2023-05-07T14:26:17;2.43;;;1.60;;
10529;SDS011;5313;48.834;9.228;2023-05-07T14:28:43;2.87;;;1.90;;
10529;SDS011;5313;48.834;9.228;2023-05-07T14:31:11;3.67;;;2.20;;
10529;SDS011;5313;48.834;9.228;2023-05-07T14:33:37;3.33;;;2.00;;
10529;SDS011;5313;48.834;9.228;2023-05-07T14:36:02;4.23;;;2.40;;
10529;SDS011;5313;48.834;9.228;2023-05-07T14:38:28;4.03;;;2.50;;
10529;SDS011;5313;48.834;9.228;2023-05-07T14:40:55;2.57;;;2.37;;
10529;SDS011;5313;48.834;9.228;2023-05-07T14:43:21;4.53;;;2.80;;
10529;SDS011;5313;48.834;9.228;2023-05-07T14:45:46;3.87;;;2.40;;
10529;SDS011;5313;48.834;9.228;2023-05-07T14:48:12;3.07;;;2.30;;
10529;SDS011;5313;48.834;9.228;2023-05-07T14:50:40;2.93;;;2.10;;
10529;SDS011;5313;48.834;9.228;2023-05-07T14:53:06;2.77;;;2.20;;
10529;SDS011;5313;48.834;9.228;2023-05-07T14:55:31;3.60;;;2.40;;
10529;SDS011;5313;48.834;9.228;2023-05-07T14:57:57;3.30;;;2.57;;
10529;SDS011;5313;48.834;9.228;2023-05-07T15:00:22;3.00;;;2.23;;
10529;SDS011;5313;48.834;9.228;2023-05-07T15:02:48;3.83;;;2.70;;